Time;durP1;ratioP1;P1;durP2;ratioP2;P2;SDS_P1;SDS_P2;PMS_P1;PMS_P2;Temp;Humidity;BMP_temperature;BMP_pressure;BME280_temperature;BME280_humidity;BME280_pressure;Samples;Min_cycle;Max_cycle;Signal;HPM_P1;HPM_P2
2022/02/02 00:00:43;;;;;;;29.38;6.20;;;19.70;99.90;;;;;;5049319;28;20032;-68
2022/02/02 00:03:10;;;;;;;33.65;6.60;;;19.70;99.90;;;;;;5053107;28;20076;-68
2022/02/02 00:08:27;;;;;;;30.65;5.65;;;19.70;99.90;;;;;;5047152;28;20409;-68
2022/02/02 00:18:57;;;;;;;29.48;5.88;;;19.70;99.90;;;;;;5034568;28;20068;-68
2022/02/02 00:21:38;;;;;;;29.63;5.93;;;19.90;99.90;;;;;;5042939;28;20013;-68
2022/02/02 00:24:17;;;;;;;30.40;6.63;;;19.70;99.90;;;;;;5040897;28;20033;-68
2022/02/02 00:26:46;;;;;;;36.15;7.38;;;19.70;99.90;;;;;;5050618;28;20413;-68
2022/02/02 00:29:18;;;;;;;32.15;6.35;;;19.80;99.90;;;;;;5050232;28;20036;-68
2022/02/02 00:32:01;;;;;;;33.28;7.00;;;19.80;99.90;;;;;;5049113;28;20061;-68
2022/02/02 00:34:30;;;;;;;32.50;6.88;;;19.70;99.90;;;;;;5049913;28;20025;-68
2022/02/02 00:36:58;;;;;;;31.08;5.43;;;19.80;99.90;;;;;;5050672;28;20104;-67
2022/02/02 00:39:27;;;;;;;27.50;6.20;;;19.80;99.90;;;;;;5051764;28;20043;-68
2022/02/02 00:41:56;;;;;;;25.13;6.03;;;19.70;99.90;;;;;;5046101;28;20017;-68
2022/02/02 00:44:25;;;;;;;37.95;6.22;;;19.70;99.90;;;;;;5040049;28;20025;-68
2022/02/02 00:46:53;;;;;;;35.67;5.40;;;19.80;99.90;;;;;;5050670;28;20122;-68
2022/02/02 00:49:21;;;;;;;30.17;5.03;;;19.80;99.90;;;;;;5051978;28;20025;-68
2022/02/02 00:51:50;;;;;;;24.90;5.22;;;19.70;99.90;;;;;;5048468;28;20021;-68
2022/02/02 00:54:20;;;;;;;28.23;6.25;;;19.70;99.90;;;;;;5044662;28;20045;-68
2022/02/02 00:56:49;;;;;;;25.45;5.97;;;19.80;99.90;;;;;;5048481;28;20098;-68
2022/02/02 00:59:17;;;;;;;29.48;5.20;;;19.80;99.90;;;;;;5045058;28;20035;-68
2022/02/02 01:01:45;;;;;;;24.10;5.75;;;19.80;99.90;;;;;;5044123;28;20056;-68
2022/02/02 01:04:13;;;;;;;37.00;5.78;;;19.90;99.90;;;;;;5037552;28;20032;-68
2022/02/02 01:06:54;;;;;;;30.65;5.45;;;19.90;99.90;;;;;;5047884;28;20114;-68
2022/02/02 01:12:20;;;;;;;26.07;5.23;;;20.10;99.90;;;;;;5050130;28;20029;-67
2022/02/02 01:20:05;;;;;;;18.98;4.65;;;20.00;99.90;;;;;;5049711;28;20091;-67
2022/02/02 01:28:03;;;;;;;23.70;5.80;;;19.90;99.90;;;;;;5047367;28;20110;-68
2022/02/02 01:30:30;;;;;;;32.60;5.00;;;19.90;99.90;;;;;;5050117;28;20481;-68
2022/02/02 01:32:57;;;;;;;24.50;4.80;;;20.00;99.90;;;;;;5040700;28;20032;-68
2022/02/02 01:35:26;;;;;;;27.73;4.80;;;20.10;99.90;;;;;;5045954;28;20036;-68
2022/02/02 01:37:53;;;;;;;19.65;3.72;;;20.10;99.90;;;;;;5050663;28;20040;-67
2022/02/02 01:42:59;;;;;;;24.42;4.80;;;20.30;99.90;;;;;;5046258;28;20055;-67
2022/02/02 01:45:51;;;;;;;20.08;5.43;;;20.30;99.90;;;;;;5050477;28;20412;-68
2022/02/02 01:48:31;;;;;;;23.15;3.85;;;20.20;99.90;;;;;;5049453;28;20092;-67
2022/02/02 01:53:58;;;;;;;18.35;4.25;;;20.20;99.90;;;;;;5041103;28;20077;-68
2022/02/02 01:56:22;;;;;;;19.60;4.82;;;20.30;99.90;;;;;;5041165;28;20116;-68
2022/02/02 02:01:19;;;;;;;24.02;5.00;;;20.40;99.90;;;;;;5051667;28;20051;-67
2022/02/02 02:03:47;;;;;;;14.85;3.72;;;20.40;99.90;;;;;;5047763;28;20112;-67
2022/02/02 02:06:14;;;;;;;23.00;4.30;;;20.40;99.90;;;;;;5050385;28;20382;-67
2022/02/02 02:08:42;;;;;;;18.67;3.83;;;20.40;99.90;;;;;;5050426;28;20037;-67
2022/02/02 02:11:16;;;;;;;19.15;3.65;;;20.50;99.90;;;;;;5049917;28;20105;-67
2022/02/02 02:14:38;;;;;;;15.85;3.95;;;20.50;99.90;;;;;;5049292;28;20100;-67
2022/02/02 02:16:37;;;;;;;15.23;3.08;;;20.60;99.90;;;;;;5045241;28;20028;-66
2022/02/02 02:19:05;;;;;;;18.17;3.50;;;20.70;99.90;;;;;;5049028;28;20496;-65
2022/02/02 02:21:35;;;;;;;17.38;4.50;;;20.70;99.90;;;;;;5051317;28;20503;-65
2022/02/02 02:24:02;;;;;;;15.88;3.38;;;20.60;99.90;;;;;;5054495;28;20509;-65
2022/02/02 02:26:30;;;;;;;21.23;3.90;;;20.70;99.90;;;;;;5050008;28;20049;-66
2022/02/02 02:29:18;;;;;;;13.75;2.60;;;20.70;99.90;;;;;;5050707;28;20030;-64
2022/02/02 02:32:02;;;;;;;17.35;3.40;;;20.70;99.90;;;;;;5052762;28;20033;-64
2022/02/02 02:56:01;;;;;;;13.35;3.05;;;20.70;99.90;;;;;;5051425;28;20546;-64
2022/02/02 03:31:36;;;;;;;23.05;3.78;;;20.90;99.90;;;;;;5051387;28;20394;-64
2022/02/02 03:51:04;;;;;;;22.77;3.85;;;20.70;99.90;;;;;;5048449;28;20075;-65
2022/02/02 03:58:30;;;;;;;19.85;3.47;;;20.60;99.90;;;;;;5052133;28;20128;-65
2022/02/02 04:01:16;;;;;;;15.88;3.45;;;20.60;99.90;;;;;;5050185;28;20048;-65
2022/02/02 04:06:28;;;;;;;18.10;3.63;;;20.70;99.90;;;;;;5038477;28;20043;-65
2022/02/02 04:08:56;;;;;;;18.10;3.40;;;20.70;99.90;;;;;;5051819;28;20060;-65
2022/02/02 04:11:38;;;;;;;17.90;3.55;;;20.60;99.90;;;;;;5052292;28;20024;-66
2022/02/02 05:03:39;;;;;;;23.38;4.25;;;20.50;99.90;;;;;;5049096;28;20091;-64
2022/02/02 05:05:57;;;;;;;29.42;4.30;;;20.40;99.90;;;;;;5050021;28;20488;-64
2022/02/02 05:08:42;;;;;;;25.63;4.43;;;20.30;99.90;;;;;;5049872;28;20032;-64
2022/02/02 05:11:23;;;;;;;24.05;3.65;;;20.20;99.90;;;;;;5035419;28;20063;-64
2022/02/02 05:43:47;;;;;;;18.33;4.05;;;19.60;99.90;;;;;;5048452;28;20070;-67
2022/02/02 05:51:39;;;;;;;15.50;3.40;;;19.40;99.90;;;;;;5040495;28;20398;-66
2022/02/02 05:54:08;;;;;;;16.17;4.78;;;19.40;99.90;;;;;;5050362;28;20025;-66
2022/02/02 05:56:46;;;;;;;19.27;3.63;;;19.50;99.90;;;;;;5055027;28;20381;-66
2022/02/02 05:59:16;;;;;;;18.52;4.70;;;19.40;99.90;;;;;;5056744;28;20115;-66
2022/02/02 06:01:55;;;;;;;22.90;4.57;;;19.30;99.90;;;;;;5053210;28;20090;-66
2022/02/02 06:04:27;;;;;;;21.77;4.45;;;19.40;99.90;;;;;;5052861;28;20017;-66
2022/02/02 06:06:56;;;;;;;23.10;4.07;;;19.30;99.90;;;;;;5049361;28;20100;-66
2022/02/02 06:09:28;;;;;;;22.35;3.67;;;19.20;99.90;;;;;;5047598;28;20474;-66
2022/02/02 06:11:56;;;;;;;16.92;3.58;;;19.20;99.90;;;;;;5055488;28;20057;-66
2022/02/02 06:14:29;;;;;;;22.55;4.22;;;19.20;99.90;;;;;;5050594;28;20013;-66
2022/02/02 06:17:02;;;;;;;20.50;4.15;;;19.30;99.90;;;;;;5055035;28;20028;-66
2022/02/02 06:19:29;;;;;;;19.27;4.88;;;19.20;99.90;;;;;;5055903;28;20094;-66
2022/02/02 06:22:20;;;;;;;23.20;4.13;;;19.20;99.90;;;;;;5045344;28;20389;-66
2022/02/02 06:24:57;;;;;;;22.42;4.10;;;19.10;99.90;;;;;;5055608;28;20116;-66
2022/02/02 06:27:27;;;;;;;17.27;3.80;;;19.10;99.90;;;;;;5047534;28;20068;-65
2022/02/02 06:30:05;;;;;;;17.15;4.45;;;19.10;99.90;;;;;;5043394;28;20033;-66
2022/02/02 06:32:44;;;;;;;15.65;3.78;;;19.10;99.90;;;;;;5048601;28;20033;-66
2022/02/02 06:35:14;;;;;;;20.48;4.93;;;19.00;99.90;;;;;;5054806;28;20028;-66
2022/02/02 06:37:42;;;;;;;21.08;3.75;;;19.00;99.90;;;;;;5054069;28;20104;-66
2022/02/02 06:40:12;;;;;;;22.08;3.95;;;19.00;99.90;;;;;;5054525;28;20025;-66
2022/02/02 06:42:41;;;;;;;18.65;3.20;;;19.10;99.90;;;;;;5054476;28;20453;-65
2022/02/02 06:45:10;;;;;;;24.67;5.15;;;19.10;99.90;;;;;;5053306;28;20492;-66
2022/02/02 06:47:39;;;;;;;18.48;4.13;;;19.00;99.90;;;;;;5056434;28;20076;-66
2022/02/02 06:50:17;;;;;;;13.63;3.90;;;19.00;99.90;;;;;;5057098;28;20025;-66
2022/02/02 06:53:05;;;;;;;18.52;4.57;;;19.10;99.90;;;;;;5049407;28;20032;-66
2022/02/02 06:55:45;;;;;;;20.08;3.83;;;19.10;99.90;;;;;;5045728;28;20420;-66
2022/02/02 06:58:44;;;;;;;16.05;4.57;;;19.00;99.90;;;;;;5045083;28;20057;-65
2022/02/02 07:01:35;;;;;;;19.40;4.93;;;19.00;99.90;;;;;;5055003;28;20020;-65
2022/02/02 07:04:19;;;;;;;18.90;3.72;;;19.00;99.90;;;;;;5035440;28;20029;-65
2022/02/02 07:06:59;;;;;;;16.17;3.67;;;18.90;99.90;;;;;;5036250;28;20382;-65
2022/02/02 07:09:50;;;;;;;17.10;4.65;;;19.00;99.90;;;;;;5051910;28;20086;-64
2022/02/02 07:12:29;;;;;;;20.02;5.35;;;19.00;99.90;;;;;;5055728;28;20052;-65
2022/02/02 07:17:47;;;;;;;17.90;3.90;;;19.10;99.90;;;;;;5055293;28;20120;-65
2022/02/02 07:20:27;;;;;;;17.67;3.05;;;19.00;99.90;;;;;;5051325;28;20026;-65
2022/02/02 07:28:10;;;;;;;11.40;3.50;;;19.10;99.90;;;;;;5054224;28;20055;-64
2022/02/02 07:33:15;;;;;;;17.35;4.75;;;19.00;99.90;;;;;;5056031;28;20035;-64
2022/02/02 07:38:43;;;;;;;30.80;5.45;;;19.10;99.90;;;;;;5049660;28;20025;-64
2022/02/02 07:41:16;;;;;;;23.55;4.65;;;19.00;99.90;;;;;;5056537;28;20564;-65
2022/02/02 07:43:48;;;;;;;17.15;3.72;;;19.00;99.90;;;;;;5056502;28;20025;-65
2022/02/02 07:46:19;;;;;;;19.70;4.47;;;19.00;99.90;;;;;;5056645;28;20085;-64
2022/02/02 07:48:49;;;;;;;17.35;5.07;;;18.90;99.90;;;;;;5057896;28;20037;-64
2022/02/02 07:51:17;;;;;;;15.30;3.75;;;18.90;99.90;;;;;;5060041;28;20056;-65
2022/02/02 07:53:49;;;;;;;18.63;4.28;;;18.90;99.90;;;;;;5057761;28;20032;-65
2022/02/02 07:56:26;;;;;;;24.67;5.68;;;18.90;99.90;;;;;;5056172;28;20021;-65
2022/02/02 08:01:50;;;;;;;19.42;6.03;;;18.90;99.90;;;;;;5028187;28;20045;-65
2022/02/02 08:04:21;;;;;;;27.05;5.00;;;18.80;99.90;;;;;;5056107;28;20504;-64
2022/02/02 08:06:53;;;;;;;17.40;4.13;;;18.80;99.90;;;;;;5053266;28;20431;-65
2022/02/02 08:09:33;;;;;;;10.63;2.67;;;18.80;99.90;;;;;;5047451;28;20025;-64
2022/02/02 08:12:02;;;;;;;18.48;4.43;;;18.70;99.90;;;;;;5054827;28;20070;-65
2022/02/02 08:14:33;;;;;;;18.65;3.83;;;18.70;99.90;;;;;;5056031;28;20353;-64
2022/02/02 08:17:00;;;;;;;26.80;3.92;;;18.60;99.90;;;;;;5050862;28;20112;-65
2022/02/02 08:19:28;;;;;;;19.00;3.97;;;18.60;99.90;;;;;;5052473;28;20021;-66
2022/02/02 08:21:55;;;;;;;20.38;3.58;;;18.60;99.90;;;;;;5053007;28;20130;-66
2022/02/02 08:24:24;;;;;;;24.08;3.92;;;18.70;99.90;;;;;;5055403;28;20029;-66
2022/02/02 08:26:51;;;;;;;26.67;4.40;;;18.70;99.90;;;;;;5056374;28;20068;-66
2022/02/02 08:29:18;;;;;;;27.70;4.85;;;18.70;99.90;;;;;;5053796;28;20022;-66
2022/02/02 08:31:46;;;;;;;19.10;4.85;;;18.70;99.90;;;;;;5049412;28;20029;-66
2022/02/02 08:34:14;;;;;;;20.67;4.68;;;18.80;99.90;;;;;;5055978;28;20044;-66
2022/02/02 08:36:44;;;;;;;20.80;4.00;;;18.80;99.90;;;;;;5056263;28;20091;-66
2022/02/02 08:41:48;;;;;;;16.70;3.80;;;18.80;99.90;;;;;;5054255;28;20398;-66
2022/02/02 08:44:21;;;;;;;13.63;3.55;;;18.90;99.90;;;;;;5054549;28;20021;-66
2022/02/02 08:47:02;;;;;;;22.67;3.47;;;18.90;99.90;;;;;;5050408;28;20428;-66
2022/02/02 08:49:34;;;;;;;19.45;4.03;;;18.90;99.90;;;;;;5053114;28;20494;-66
2022/02/02 08:52:03;;;;;;;18.20;3.78;;;19.00;99.90;;;;;;5053541;28;20021;-65
2022/02/02 08:54:44;;;;;;;23.48;4.50;;;19.00;99.90;;;;;;5055888;28;20047;-66
2022/02/02 08:59:53;;;;;;;13.93;3.03;;;19.10;99.90;;;;;;5059208;28;20033;-66
2022/02/02 09:02:26;;;;;;;17.08;4.35;;;19.10;99.90;;;;;;5050384;28;20065;-65
2022/02/02 09:07:39;;;;;;;17.15;3.80;;;19.20;99.90;;;;;;5048395;28;20175;-66
2022/02/02 09:10:17;;;;;;;18.83;3.70;;;19.20;99.90;;;;;;5050542;28;20110;-65
2022/02/02 09:23:46;;;;;;;18.88;3.53;;;18.90;99.90;;;;;;5045270;28;20021;-66
2022/02/02 09:31:27;;;;;;;16.92;4.55;;;18.80;99.90;;;;;;5035254;28;20476;-66
2022/02/02 09:32:27;;;;;;;13.93;3.53;;;18.80;99.90;;;;;;5044025;28;20122;-66
2022/02/02 09:34:55;;;;;;;13.80;3.72;;;18.80;99.90;;;;;;5048979;28;20032;-66
2022/02/02 09:37:23;;;;;;;17.50;4.45;;;18.80;99.90;;;;;;5033086;28;20026;-66
2022/02/02 09:40:03;;;;;;;21.35;4.10;;;18.90;99.90;;;;;;5051918;28;20028;-66
2022/02/02 09:42:33;;;;;;;18.70;4.13;;;18.90;99.90;;;;;;5050466;28;20483;-64
2022/02/02 09:45:07;;;;;;;14.35;2.80;;;18.90;99.90;;;;;;5051292;28;20025;-65
2022/02/02 09:47:43;;;;;;;14.52;3.30;;;18.90;99.90;;;;;;5051683;28;20029;-64
2022/02/02 09:50:28;;;;;;;16.67;3.58;;;18.90;99.90;;;;;;5053815;28;20025;-65
2022/02/02 09:52:59;;;;;;;13.23;2.58;;;18.90;99.90;;;;;;5053897;28;20398;-65
2022/02/02 10:04:04;;;;;;;15.43;2.85;;;18.90;99.90;;;;;;5003595;28;20043;-65
2022/02/02 10:14:28;;;;;;;18.88;3.42;;;19.10;99.90;;;;;;5039227;28;20178;-65
2022/02/02 10:16:56;;;;;;;12.32;3.55;;;19.00;99.90;;;;;;5053155;28;20017;-65
2022/02/02 10:19:32;;;;;;;17.55;4.22;;;19.10;99.90;;;;;;5046003;28;20233;-65
2022/02/02 10:21:59;;;;;;;16.63;2.92;;;19.10;99.90;;;;;;5052723;28;20033;-65
2022/02/02 10:24:46;;;;;;;14.23;1.95;;;19.10;99.90;;;;;;5050035;28;20029;-65
2022/02/02 10:27:44;;;;;;;10.43;2.88;;;19.10;99.90;;;;;;5042697;28;20056;-65
2022/02/02 10:30:14;;;;;;;11.52;3.20;;;19.10;99.90;;;;;;5040526;28;20052;-66
2022/02/02 10:32:44;;;;;;;14.90;2.40;;;19.10;99.90;;;;;;5060940;28;20033;-66
2022/02/02 10:35:38;;;;;;;12.70;2.55;;;19.20;99.90;;;;;;5036699;28;20094;-65
2022/02/02 10:38:13;;;;;;;14.25;2.30;;;19.20;99.90;;;;;;5047483;28;20021;-66
2022/02/02 10:40:54;;;;;;;14.13;2.88;;;19.30;99.90;;;;;;5051865;28;20025;-67
2022/02/02 10:43:29;;;;;;;15.85;2.40;;;19.30;99.90;;;;;;5047259;28;20021;-67
2022/02/02 10:45:56;;;;;;;14.18;2.40;;;19.30;99.90;;;;;;5047235;28;20037;-66
2022/02/02 10:48:33;;;;;;;16.77;2.67;;;19.20;99.90;;;;;;5051927;28;20639;-67
2022/02/02 10:51:30;;;;;;;14.60;2.88;;;19.20;99.90;;;;;;5053380;28;20040;-69
2022/02/02 10:56:59;;;;;;;13.93;3.17;;;19.00;99.90;;;;;;5044311;28;20096;-68
2022/02/02 11:07:55;;;;;;;15.00;2.80;;;19.10;99.90;;;;;;5029276;28;20037;-66
2022/02/02 11:10:23;;;;;;;14.05;3.30;;;19.10;99.90;;;;;;5055372;28;20394;-67
2022/02/02 11:12:54;;;;;;;14.40;2.78;;;19.10;99.90;;;;;;5049129;28;20060;-67
2022/02/02 11:15:48;;;;;;;9.27;2.40;;;19.10;99.90;;;;;;5041831;28;20021;-66
2022/02/02 11:18:46;;;;;;;10.60;2.05;;;19.10;99.90;;;;;;5053067;28;20052;-66
2022/02/02 11:21:21;;;;;;;16.08;2.78;;;19.10;99.90;;;;;;5037904;28;20025;-67
2022/02/02 11:23:54;;;;;;;13.95;2.63;;;19.20;99.90;;;;;;5051258;28;20416;-67
2022/02/02 11:26:42;;;;;;;12.30;2.22;;;19.20;99.90;;;;;;5052882;28;20096;-67
2022/02/02 11:29:10;;;;;;;14.93;2.00;;;19.20;99.90;;;;;;5050448;28;20501;-67
2022/02/02 11:32:08;;;;;;;14.32;3.80;;;19.20;99.90;;;;;;5052419;28;20099;-67
2022/02/02 11:34:35;;;;;;;13.43;2.42;;;19.20;99.90;;;;;;5052133;28;20104;-67
2022/02/02 11:37:05;;;;;;;10.43;2.67;;;19.30;99.90;;;;;;5048457;28;20087;-66
2022/02/02 11:39:49;;;;;;;18.88;3.50;;;19.30;99.90;;;;;;5050869;28;20115;-66
2022/02/02 11:42:53;;;;;;;11.27;3.35;;;19.40;99.90;;;;;;5058658;28;20032;-67
2022/02/02 11:46:03;;;;;;;14.20;2.60;;;19.40;99.90;;;;;;5047037;28;20029;-67
2022/02/02 11:48:54;;;;;;;13.60;2.70;;;19.50;99.90;;;;;;5047102;28;20501;-67
2022/02/02 11:51:47;;;;;;;13.98;3.05;;;19.50;99.90;;;;;;5048087;28;20040;-66
2022/02/02 11:54:41;;;;;;;12.50;2.08;;;19.50;99.90;;;;;;5047978;28;20061;-67
2022/02/02 11:57:19;;;;;;;12.95;3.15;;;19.50;99.90;;;;;;5045772;28;20033;-66
2022/02/02 12:00:01;;;;;;;11.52;2.42;;;19.40;99.90;;;;;;5047473;28;20064;-67
2022/02/02 12:03:06;;;;;;;16.27;2.05;;;19.50;99.90;;;;;;5052369;28;20028;-67
2022/02/02 12:08:32;;;;;;;12.50;2.47;;;19.40;99.90;;;;;;5049619;28;20064;-67
2022/02/02 12:11:41;;;;;;;14.40;2.45;;;19.40;99.90;;;;;;5047632;28;20366;-67
2022/02/02 12:44:53;;;;;;;12.15;2.40;;;19.50;99.90;;;;;;5050455;28;20037;-67
2022/02/02 12:58:24;;;;;;;11.48;2.10;;;19.60;99.90;;;;;;5053471;28;20040;-67
2022/02/02 13:01:08;;;;;;;9.13;1.55;;;19.60;99.90;;;;;;5041797;28;20389;-67
2022/02/02 13:03:37;;;;;;;9.43;1.80;;;19.50;99.90;;;;;;5051857;28;20386;-67
2022/02/02 13:06:12;;;;;;;10.60;2.25;;;19.50;99.90;;;;;;5053662;28;20025;-67
2022/02/02 13:08:40;;;;;;;11.18;1.92;;;19.50;99.90;;;;;;5051929;28;20025;-67
2022/02/02 13:11:07;;;;;;;11.10;1.33;;;19.60;99.90;;;;;;5049117;28;20028;-67
2022/02/02 13:13:35;;;;;;;8.90;1.85;;;19.50;99.90;;;;;;5051741;28;20076;-67
2022/02/02 13:16:19;;;;;;;13.63;2.35;;;19.60;99.90;;;;;;5051320;28;20375;-67
2022/02/02 13:18:50;;;;;;;15.93;2.70;;;19.50;99.90;;;;;;5051600;28;20033;-67
2022/02/02 13:21:32;;;;;;;10.38;2.13;;;19.50;99.90;;;;;;5052544;28;20029;-67
2022/02/02 13:24:13;;;;;;;10.98;2.22;;;19.40;99.90;;;;;;5039713;28;20029;-67
2022/02/02 13:26:59;;;;;;;14.07;2.15;;;19.40;99.90;;;;;;5046963;28;20175;-67
2022/02/02 13:29:33;;;;;;;13.85;2.88;;;19.40;99.90;;;;;;5045507;28;20102;-67
2022/02/02 13:32:17;;;;;;;14.98;2.08;;;19.30;99.90;;;;;;5051485;28;20023;-67
2022/02/02 13:58:46;;;;;;;8.50;2.25;;;19.10;99.90;;;;;;5051062;28;20117;-67
2022/02/02 14:01:25;;;;;;;15.00;2.80;;;19.20;99.90;;;;;;5050788;28;20083;-67
2022/02/02 14:26:09;;;;;;;20.30;2.60;;;19.10;99.90;;;;;;5054231;28;20036;-67
2022/02/02 14:31:26;;;;;;;8.98;2.28;;;19.10;99.90;;;;;;5049631;28;20123;-67
2022/02/02 14:33:59;;;;;;;15.68;1.73;;;19.10;99.90;;;;;;5056333;28;20021;-66
2022/02/02 14:36:32;;;;;;;13.48;2.58;;;19.00;99.90;;;;;;5050898;28;20503;-66
2022/02/02 14:44:05;;;;;;;16.58;3.05;;;19.10;99.90;;;;;;5047574;28;20060;-67
2022/02/02 14:49:19;;;;;;;15.43;2.70;;;19.00;99.90;;;;;;5055900;28;19917;-66
2022/02/02 14:51:57;;;;;;;10.73;2.08;;;19.00;99.90;;;;;;5052059;28;20749;-66
2022/02/02 14:54:44;;;;;;;11.30;2.45;;;19.00;99.90;;;;;;5056167;28;20021;-66
2022/02/02 15:32:17;;;;;;;11.80;2.20;;;18.80;99.90;;;;;;5055780;28;20148;-66
2022/02/02 15:34:51;;;;;;;11.88;2.22;;;18.80;99.90;;;;;;5052668;28;20033;-67
2022/02/02 15:37:42;;;;;;;9.68;1.75;;;18.80;99.90;;;;;;5054591;28;20443;-67
2022/02/02 15:40:13;;;;;;;14.13;2.17;;;18.80;99.90;;;;;;5053644;28;20061;-66
2022/02/02 15:42:50;;;;;;;13.77;2.28;;;18.70;99.90;;;;;;5053269;28;20075;-67
2022/02/02 15:58:48;;;;;;;18.40;2.55;;;18.80;99.90;;;;;;5048264;28;20038;-66
2022/02/02 16:02:09;;;;;;;12.20;2.53;;;18.80;99.90;;;;;;5053113;28;20100;-66
2022/02/02 16:04:09;;;;;;;15.07;2.08;;;18.80;99.90;;;;;;5038456;28;20493;-66
2022/02/02 16:06:36;;;;;;;14.48;2.95;;;18.80;99.90;;;;;;5051648;28;20551;-66
2022/02/02 16:09:20;;;;;;;14.32;2.35;;;18.70;99.90;;;;;;5053782;28;20048;-66
2022/02/02 16:12:03;;;;;;;16.73;2.17;;;18.80;99.90;;;;;;5047916;28;20486;-66
2022/02/02 16:14:34;;;;;;;15.05;2.35;;;18.80;99.90;;;;;;5048360;28;20297;-66
2022/02/02 16:36:34;;;;;;;16.98;2.42;;;18.80;99.90;;;;;;5052999;28;20083;-66
2022/02/02 16:39:14;;;;;;;14.27;2.20;;;18.80;99.90;;;;;;5046803;28;20040;-66
2022/02/02 16:44:27;;;;;;;17.65;3.90;;;18.80;99.90;;;;;;5046619;28;20112;-66
2022/02/02 16:46:54;;;;;;;16.65;3.05;;;18.80;99.90;;;;;;5051895;28;20087;-66
2022/02/02 16:49:22;;;;;;;17.63;2.75;;;18.70;99.90;;;;;;5046697;28;20095;-66
2022/02/02 16:51:49;;;;;;;16.85;2.83;;;18.70;99.90;;;;;;5049415;28;20032;-66
2022/02/02 16:54:35;;;;;;;19.75;2.58;;;18.70;99.90;;;;;;5046301;28;20021;-66
2022/02/02 17:25:41;;;;;;;14.95;3.05;;;18.60;99.90;;;;;;5052780;28;20032;-66
2022/02/02 17:35:27;;;;;;;15.98;2.17;;;18.60;99.90;;;;;;5051915;28;20029;-66
2022/02/02 17:37:55;;;;;;;20.55;1.73;;;18.50;99.90;;;;;;5048454;28;20402;-66
2022/02/02 17:43:24;;;;;;;17.25;2.95;;;18.40;99.90;;;;;;5047784;28;20025;-66
2022/02/02 18:19:11;;;;;;;9.43;1.48;;;18.20;99.90;;;;;;5049043;28;20390;-66
2022/02/02 18:21:38;;;;;;;10.07;2.72;;;18.20;99.90;;;;;;5049940;28;20029;-66
2022/02/02 18:26:56;;;;;;;15.38;1.83;;;18.20;99.90;;;;;;5050615;28;20102;-66
2022/02/02 18:29:36;;;;;;;25.45;3.25;;;18.20;99.90;;;;;;5047717;28;20048;-66
2022/02/02 18:34:50;;;;;;;17.95;1.73;;;18.20;99.90;;;;;;5052594;28;20040;-66
2022/02/02 18:55:43;;;;;;;13.85;2.45;;;18.20;99.90;;;;;;5050845;28;20086;-66
2022/02/02 19:00:56;;;;;;;17.30;2.38;;;18.20;99.90;;;;;;5048149;28;20064;-66
2022/02/02 19:03:45;;;;;;;16.10;2.63;;;18.10;99.90;;;;;;5054590;28;20024;-66
2022/02/02 19:40:01;;;;;;;9.13;1.52;;;18.10;99.90;;;;;;5035663;28;20069;-66
2022/02/02 20:01:49;;;;;;;13.48;1.73;;;18.20;99.90;;;;;;5048021;28;20421;-66
2022/02/02 20:04:37;;;;;;;;;;;18.30;99.90;;;;;;5051087;28;20025;-67
2022/02/02 20:12:15;;;;;;;15.38;2.88;;;18.20;99.90;;;;;;5048126;28;20037;-67
2022/02/02 20:14:43;;;;;;;17.25;3.22;;;18.30;99.90;;;;;;5049745;28;20068;-65
2022/02/02 20:17:15;;;;;;;15.45;2.42;;;18.20;99.90;;;;;;5052449;28;20040;-66
2022/02/02 20:19:46;;;;;;;17.83;2.50;;;18.30;99.90;;;;;;5045496;28;20024;-67
2022/02/02 20:22:17;;;;;;;12.60;2.80;;;18.30;99.90;;;;;;5050524;28;20118;-67
2022/02/02 20:24:52;;;;;;;15.85;2.22;;;18.30;99.90;;;;;;5055107;28;20040;-67
2022/02/02 20:27:21;;;;;;;12.57;2.75;;;18.20;99.90;;;;;;5048941;28;20049;-66
2022/02/02 20:29:48;;;;;;;13.23;1.67;;;18.30;99.90;;;;;;5047366;28;20092;-67
2022/02/02 20:32:15;;;;;;;14.30;1.67;;;18.30;99.90;;;;;;5045425;28;20022;-67
2022/02/02 20:34:43;;;;;;;15.95;1.75;;;18.30;99.90;;;;;;5051872;28;20055;-66
2022/02/02 20:37:14;;;;;;;12.45;1.77;;;18.30;99.90;;;;;;5045778;28;20438;-66
2022/02/02 20:42:58;;;;;;;10.40;1.92;;;18.30;99.90;;;;;;5044640;28;20041;-67
2022/02/02 21:04:50;;;;;;;14.02;2.17;;;18.30;99.90;;;;;;5039493;28;20032;-67
2022/02/02 21:07:51;;;;;;;14.10;2.10;;;18.50;99.90;;;;;;5041149;28;20116;-67
2022/02/02 21:10:24;;;;;;;13.32;2.15;;;18.80;99.90;;;;;;5032770;28;20041;-67
2022/02/02 21:15:38;;;;;;;8.65;2.35;;;19.10;99.90;;;;;;5048494;28;20508;-67
2022/02/02 21:18:15;;;;;;;15.93;1.77;;;19.20;99.90;;;;;;5048861;28;20108;-67
2022/02/02 21:28:31;;;;;;;11.32;1.95;;;19.10;99.90;;;;;;5051942;28;20068;-67
2022/02/02 21:31:02;;;;;;;11.45;2.75;;;19.00;99.90;;;;;;5052747;28;20056;-67
2022/02/02 21:33:30;;;;;;;11.35;2.10;;;18.90;99.90;;;;;;5044001;28;20500;-67
2022/02/02 21:35:58;;;;;;;11.63;1.73;;;18.80;99.90;;;;;;5040424;28;20040;-67
2022/02/02 21:38:34;;;;;;;12.07;2.08;;;18.80;99.90;;;;;;5051501;28;20079;-67
2022/02/02 21:41:02;;;;;;;14.50;1.80;;;18.90;99.90;;;;;;5036121;28;20021;-67
2022/02/02 21:43:30;;;;;;;11.65;1.25;;;19.10;99.90;;;;;;5050635;28;20032;-67
2022/02/02 21:45:58;;;;;;;15.05;2.33;;;19.40;99.90;;;;;;5052169;28;20057;-67
2022/02/02 21:48:31;;;;;;;15.82;2.33;;;19.70;99.90;;;;;;5049532;28;20493;-67
2022/02/02 21:51:05;;;;;;;9.13;1.08;;;19.70;99.90;;;;;;5046018;28;20036;-67
2022/02/02 21:53:33;;;;;;;13.75;2.70;;;19.70;99.90;;;;;;5047793;28;20116;-67
2022/02/02 21:56:00;;;;;;;11.70;1.95;;;19.80;99.90;;;;;;5049526;28;20083;-67
2022/02/02 21:58:28;;;;;;;11.90;1.88;;;19.90;99.90;;;;;;5044954;28;20057;-67
2022/02/02 22:00:58;;;;;;;9.25;1.52;;;20.10;99.90;;;;;;5032354;28;20032;-67
2022/02/02 22:03:25;;;;;;;25.70;2.28;;;20.10;99.90;;;;;;5043209;28;20021;-67
2022/02/02 22:05:52;;;;;;;15.73;1.92;;;19.80;99.90;;;;;;5043365;28;20535;-67
2022/02/02 22:08:19;;;;;;;17.55;2.38;;;19.90;99.90;;;;;;5048494;28;20043;-67
2022/02/02 22:10:48;;;;;;;11.63;2.28;;;20.00;99.90;;;;;;5049850;28;20525;-67
2022/02/02 22:13:17;;;;;;;9.43;1.33;;;20.10;99.90;;;;;;5049969;28;20037;-68
2022/02/02 22:15:52;;;;;;;11.20;2.13;;;20.20;99.90;;;;;;5043607;28;20025;-67
2022/02/02 22:18:20;;;;;;;13.52;2.55;;;20.40;99.90;;;;;;5055234;28;20071;-65
2022/02/02 22:20:49;;;;;;;11.77;2.40;;;20.60;99.90;;;;;;5038594;28;20032;-67
2022/02/02 22:23:17;;;;;;;9.90;2.25;;;20.70;99.90;;;;;;5046716;28;20021;-67
2022/02/02 22:25:44;;;;;;;13.95;1.45;;;20.50;99.90;;;;;;5052173;28;20116;-67
2022/02/02 22:28:12;;;;;;;9.30;1.92;;;20.30;99.90;;;;;;5051276;28;20521;-67
2022/02/02 22:30:40;;;;;;;14.43;1.70;;;20.40;99.90;;;;;;5051051;28;20041;-67
2022/02/02 22:33:07;;;;;;;13.70;1.90;;;20.40;99.90;;;;;;5050653;28;20029;-67
2022/02/02 22:35:34;;;;;;;9.80;1.80;;;20.30;99.90;;;;;;5051683;28;20386;-67
2022/02/02 22:38:02;;;;;;;16.83;2.30;;;20.20;99.90;;;;;;5055389;28;20511;-66
2022/02/02 22:40:29;;;;;;;9.95;1.52;;;20.20;99.90;;;;;;5055042;28;20391;-67
2022/02/02 22:42:56;;;;;;;12.93;1.90;;;20.30;99.90;;;;;;5052222;28;20033;-67
2022/02/02 22:45:25;;;;;;;16.67;3.10;;;20.50;99.90;;;;;;5055896;28;20104;-67
2022/02/02 22:47:53;;;;;;;10.75;1.48;;;20.50;99.90;;;;;;5054289;28;20044;-67
2022/02/02 22:50:20;;;;;;;12.48;2.28;;;20.60;99.90;;;;;;5055814;28;20098;-67
2022/02/02 22:52:53;;;;;;;14.55;2.08;;;20.80;99.90;;;;;;5055548;28;20067;-67
2022/02/02 22:55:20;;;;;;;14.05;2.03;;;21.20;99.90;;;;;;5055102;28;20021;-67
2022/02/02 22:57:48;;;;;;;13.38;2.05;;;21.00;99.90;;;;;;5054135;28;20028;-67
2022/02/02 23:00:18;;;;;;;11.80;2.00;;;20.90;99.90;;;;;;5056123;28;20079;-67
2022/02/02 23:05:13;;;;;;;12.70;1.77;;;21.10;99.90;;;;;;5056054;28;20017;-67
2022/02/02 23:07:41;;;;;;;13.05;1.73;;;21.00;99.90;;;;;;5055377;28;20025;-66
2022/02/02 23:10:08;;;;;;;12.35;1.83;;;21.00;99.90;;;;;;5052868;28;20548;-65
2022/02/02 23:12:36;;;;;;;9.52;1.65;;;20.70;99.90;;;;;;5053949;28;20056;-65
2022/02/02 23:15:08;;;;;;;12.35;1.38;;;20.80;99.90;;;;;;5055061;28;20032;-65
2022/02/02 23:17:36;;;;;;;15.40;2.42;;;21.00;99.90;;;;;;5054223;28;20044;-66
2022/02/02 23:20:05;;;;;;;8.43;1.67;;;21.00;99.90;;;;;;5055066;28;20108;-66
2022/02/02 23:22:34;;;;;;;12.75;2.35;;;21.00;99.90;;;;;;5054192;28;20029;-66
2022/02/02 23:25:09;;;;;;;16.35;2.20;;;20.90;99.90;;;;;;5055001;28;20107;-66
2022/02/02 23:27:37;;;;;;;12.43;2.13;;;20.90;99.90;;;;;;5054433;28;20382;-67
2022/02/02 23:30:09;;;;;;;10.40;1.85;;;21.00;99.90;;;;;;5055220;28;20033;-66
2022/02/02 23:32:37;;;;;;;16.08;2.88;;;21.00;99.90;;;;;;5054350;28;20076;-66
2022/02/02 23:35:05;;;;;;;11.90;2.25;;;21.30;99.90;;;;;;5054888;28;20031;-66
2022/02/02 23:37:33;;;;;;;8.25;1.98;;;21.10;99.90;;;;;;5053350;28;20441;-66